sensor_id;sensor_type;location;lat;lon;timestamp;temperature;humidity
65826;DHT22;52586;-43.152;172.732;2022-11-20T00:01:38;22.30;61.90
65826;DHT22;52586;-43.152;172.732;2022-11-20T00:04:10;22.30;61.90
65826;DHT22;52586;-43.152;172.732;2022-11-20T00:06:41;22.30;61.80
65826;DHT22;52586;-43.152;172.732;2022-11-20T00:09:11;22.30;61.80
65826;DHT22;52586;-43.152;172.732;2022-11-20T00:11:43;22.30;61.60
65826;DHT22;52586;-43.152;172.732;2022-11-20T00:14:15;22.40;61.50
65826;DHT22;52586;-43.152;172.732;2022-11-20T00:16:46;22.40;61.40
65826;DHT22;52586;-43.152;172.732;2022-11-20T00:19:17;22.40;61.30
65826;DHT22;52586;-43.152;172.732;2022-11-20T00:21:48;22.40;61.30
65826;DHT22;52586;-43.152;172.732;2022-11-20T00:24:21;22.40;61.10
65826;DHT22;52586;-43.152;172.732;2022-11-20T00:26:52;22.50;61.10
65826;DHT22;52586;-43.152;172.732;2022-11-20T00:29:24;22.50;61.10
65826;DHT22;52586;-43.152;172.732;2022-11-20T00:31:55;22.50;61.00
65826;DHT22;52586;-43.152;172.732;2022-11-20T00:34:26;22.50;60.80
65826;DHT22;52586;-43.152;172.732;2022-11-20T00:36:57;22.60;60.90
65826;DHT22;52586;-43.152;172.732;2022-11-20T00:39:27;22.60;60.80
65826;DHT22;52586;-43.152;172.732;2022-11-20T00:41:58;22.60;60.60
65826;DHT22;52586;-43.152;172.732;2022-11-20T00:44:31;22.60;61.30
65826;DHT22;52586;-43.152;172.732;2022-11-20T00:47:02;22.60;60.40
65826;DHT22;52586;-43.152;172.732;2022-11-20T00:49:32;22.60;60.30
65826;DHT22;52586;-43.152;172.732;2022-11-20T00:52:03;22.70;60.70
65826;DHT22;52586;-43.152;172.732;2022-11-20T00:54:34;22.70;60.10
65826;DHT22;52586;-43.152;172.732;2022-11-20T00:57:05;22.70;60.00
65826;DHT22;52586;-43.152;172.732;2022-11-20T00:59:37;22.70;59.90
65826;DHT22;52586;-43.152;172.732;2022-11-20T01:02:09;22.70;59.90
65826;DHT22;52586;-43.152;172.732;2022-11-20T01:04:39;22.70;59.90
65826;DHT22;52586;-43.152;172.732;2022-11-20T01:07:10;22.80;59.90
65826;DHT22;52586;-43.152;172.732;2022-11-20T01:09:41;22.80;59.90
65826;DHT22;52586;-43.152;172.732;2022-11-20T01:12:12;22.80;59.80
65826;DHT22;52586;-43.152;172.732;2022-11-20T01:14:44;22.80;59.70
65826;DHT22;52586;-43.152;172.732;2022-11-20T01:17:15;22.90;59.70
65826;DHT22;52586;-43.152;172.732;2022-11-20T01:19:49;22.90;59.60
65826;DHT22;52586;-43.152;172.732;2022-11-20T01:22:20;22.90;59.60
65826;DHT22;52586;-43.152;172.732;2022-11-20T01:24:51;22.90;59.70
65826;DHT22;52586;-43.152;172.732;2022-11-20T01:27:21;22.90;59.50
65826;DHT22;52586;-43.152;172.732;2022-11-20T01:29:54;23.00;60.10
65826;DHT22;52586;-43.152;172.732;2022-11-20T01:32:25;23.00;59.40
65826;DHT22;52586;-43.152;172.732;2022-11-20T01:34:55;23.00;59.30
65826;DHT22;52586;-43.152;172.732;2022-11-20T01:37:26;23.00;59.30
65826;DHT22;52586;-43.152;172.732;2022-11-20T01:39:57;23.00;59.30
65826;DHT22;52586;-43.152;172.732;2022-11-20T01:42:28;23.00;59.10
65826;DHT22;52586;-43.152;172.732;2022-11-20T01:48:35;23.10;59.20
65826;DHT22;52586;-43.152;172.732;2022-11-20T01:51:10;23.10;59.10
65826;DHT22;52586;-43.152;172.732;2022-11-20T01:53:43;23.10;59.00
65826;DHT22;52586;-43.152;172.732;2022-11-20T01:56:15;23.10;59.00
65826;DHT22;52586;-43.152;172.732;2022-11-20T01:58:49;23.10;58.90
65826;DHT22;52586;-43.152;172.732;2022-11-20T02:01:21;23.10;58.80
65826;DHT22;52586;-43.152;172.732;2022-11-20T02:03:54;23.20;58.80
65826;DHT22;52586;-43.152;172.732;2022-11-20T02:06:27;23.20;58.70
65826;DHT22;52586;-43.152;172.732;2022-11-20T02:08:59;23.20;58.70
65826;DHT22;52586;-43.152;172.732;2022-11-20T02:11:31;23.20;58.60
65826;DHT22;52586;-43.152;172.732;2022-11-20T02:14:02;23.20;58.40
65826;DHT22;52586;-43.152;172.732;2022-11-20T02:16:33;23.20;58.40
65826;DHT22;52586;-43.152;172.732;2022-11-20T02:19:09;23.20;58.30
65826;DHT22;52586;-43.152;172.732;2022-11-20T02:21:47;23.30;58.30
65826;DHT22;52586;-43.152;172.732;2022-11-20T02:24:22;23.30;58.20
65826;DHT22;52586;-43.152;172.732;2022-11-20T02:26:54;23.30;58.20
65826;DHT22;52586;-43.152;172.732;2022-11-20T02:29:31;23.30;58.30
65826;DHT22;52586;-43.152;172.732;2022-11-20T02:32:03;23.30;58.30
65826;DHT22;52586;-43.152;172.732;2022-11-20T02:34:34;23.30;58.30
65826;DHT22;52586;-43.152;172.732;2022-11-20T02:37:04;23.30;58.30
65826;DHT22;52586;-43.152;172.732;2022-11-20T02:39:37;23.30;58.20
65826;DHT22;52586;-43.152;172.732;2022-11-20T02:42:08;23.30;58.10
65826;DHT22;52586;-43.152;172.732;2022-11-20T02:44:38;23.30;58.00
65826;DHT22;52586;-43.152;172.732;2022-11-20T02:47:11;23.30;58.00
65826;DHT22;52586;-43.152;172.732;2022-11-20T02:49:42;23.30;58.00
65826;DHT22;52586;-43.152;172.732;2022-11-20T02:52:13;23.40;58.00
65826;DHT22;52586;-43.152;172.732;2022-11-20T02:54:46;23.40;58.00
65826;DHT22;52586;-43.152;172.732;2022-11-20T02:57:17;23.40;58.00
65826;DHT22;52586;-43.152;172.732;2022-11-20T02:59:48;23.40;57.90
65826;DHT22;52586;-43.152;172.732;2022-11-20T03:02:19;23.40;58.10
65826;DHT22;52586;-43.152;172.732;2022-11-20T03:04:50;23.40;58.10
65826;DHT22;52586;-43.152;172.732;2022-11-20T03:07:20;23.40;58.20
65826;DHT22;52586;-43.152;172.732;2022-11-20T03:09:53;23.50;58.30
65826;DHT22;52586;-43.152;172.732;2022-11-20T03:12:24;23.50;58.10
65826;DHT22;52586;-43.152;172.732;2022-11-20T03:14:54;23.50;58.00
65826;DHT22;52586;-43.152;172.732;2022-11-20T03:17:25;23.60;58.10
65826;DHT22;52586;-43.152;172.732;2022-11-20T03:19:57;23.60;58.00
65826;DHT22;52586;-43.152;172.732;2022-11-20T03:22:29;23.60;58.00
65826;DHT22;52586;-43.152;172.732;2022-11-20T03:25:02;23.70;57.90
65826;DHT22;52586;-43.152;172.732;2022-11-20T03:27:34;23.70;57.90
65826;DHT22;52586;-43.152;172.732;2022-11-20T03:30:06;23.70;57.70
65826;DHT22;52586;-43.152;172.732;2022-11-20T03:32:36;23.70;57.60
65826;DHT22;52586;-43.152;172.732;2022-11-20T03:35:08;23.80;57.60
65826;DHT22;52586;-43.152;172.732;2022-11-20T03:37:39;23.80;57.50
65826;DHT22;52586;-43.152;172.732;2022-11-20T03:40:12;23.80;57.60
65826;DHT22;52586;-43.152;172.732;2022-11-20T03:42:43;23.80;57.70
65826;DHT22;52586;-43.152;172.732;2022-11-20T03:45:18;23.90;57.70
65826;DHT22;52586;-43.152;172.732;2022-11-20T03:47:49;23.90;57.60
65826;DHT22;52586;-43.152;172.732;2022-11-20T03:50:20;23.90;57.50
65826;DHT22;52586;-43.152;172.732;2022-11-20T03:52:51;24.00;57.60
65826;DHT22;52586;-43.152;172.732;2022-11-20T03:55:23;24.00;57.50
65826;DHT22;52586;-43.152;172.732;2022-11-20T03:57:54;24.00;57.70
65826;DHT22;52586;-43.152;172.732;2022-11-20T04:00:25;24.00;57.30
65826;DHT22;52586;-43.152;172.732;2022-11-20T04:02:59;24.10;57.30
65826;DHT22;52586;-43.152;172.732;2022-11-20T04:05:30;24.00;57.40
65826;DHT22;52586;-43.152;172.732;2022-11-20T04:08:01;24.10;57.40
65826;DHT22;52586;-43.152;172.732;2022-11-20T04:10:33;24.10;57.20
65826;DHT22;52586;-43.152;172.732;2022-11-20T04:13:04;24.20;57.10
65826;DHT22;52586;-43.152;172.732;2022-11-20T04:15:35;24.20;57.10
65826;DHT22;52586;-43.152;172.732;2022-11-20T04:18:05;24.20;57.10
65826;DHT22;52586;-43.152;172.732;2022-11-20T04:20:37;24.20;57.20
65826;DHT22;52586;-43.152;172.732;2022-11-20T04:23:08;24.20;57.10
65826;DHT22;52586;-43.152;172.732;2022-11-20T04:25:40;24.20;57.30
65826;DHT22;52586;-43.152;172.732;2022-11-20T04:28:11;24.20;57.30
65826;DHT22;52586;-43.152;172.732;2022-11-20T04:30:42;24.20;57.20
65826;DHT22;52586;-43.152;172.732;2022-11-20T04:33:13;24.20;57.30
65826;DHT22;52586;-43.152;172.732;2022-11-20T04:35:44;24.20;57.20
65826;DHT22;52586;-43.152;172.732;2022-11-20T04:38:17;24.20;57.10
65826;DHT22;52586;-43.152;172.732;2022-11-20T04:40:50;24.20;57.10
65826;DHT22;52586;-43.152;172.732;2022-11-20T04:43:21;24.20;57.00
65826;DHT22;52586;-43.152;172.732;2022-11-20T04:45:52;24.20;56.90
65826;DHT22;52586;-43.152;172.732;2022-11-20T04:48:23;24.20;56.90
65826;DHT22;52586;-43.152;172.732;2022-11-20T04:50:54;24.20;56.90
65826;DHT22;52586;-43.152;172.732;2022-11-20T04:53:26;24.20;56.90
65826;DHT22;52586;-43.152;172.732;2022-11-20T04:56:03;24.20;56.90
65826;DHT22;52586;-43.152;172.732;2022-11-20T04:58:34;24.20;57.00
65826;DHT22;52586;-43.152;172.732;2022-11-20T05:01:06;24.20;57.20
65826;DHT22;52586;-43.152;172.732;2022-11-20T05:03:37;24.20;57.20
65826;DHT22;52586;-43.152;172.732;2022-11-20T05:06:08;24.20;57.30
65826;DHT22;52586;-43.152;172.732;2022-11-20T05:08:40;24.20;57.30
65826;DHT22;52586;-43.152;172.732;2022-11-20T05:11:13;24.20;57.70
65826;DHT22;52586;-43.152;172.732;2022-11-20T05:13:45;24.20;57.70
65826;DHT22;52586;-43.152;172.732;2022-11-20T05:16:19;24.20;57.00
65826;DHT22;52586;-43.152;172.732;2022-11-20T05:18:50;24.20;56.90
65826;DHT22;52586;-43.152;172.732;2022-11-20T05:21:21;24.20;56.90
65826;DHT22;52586;-43.152;172.732;2022-11-20T05:23:55;24.20;56.90
65826;DHT22;52586;-43.152;172.732;2022-11-20T05:26:28;24.20;56.80
65826;DHT22;52586;-43.152;172.732;2022-11-20T05:28:59;24.20;56.90
65826;DHT22;52586;-43.152;172.732;2022-11-20T05:31:29;24.20;57.50
65826;DHT22;52586;-43.152;172.732;2022-11-20T05:34:00;24.20;56.90
65826;DHT22;52586;-43.152;172.732;2022-11-20T05:36:31;24.20;57.00
65826;DHT22;52586;-43.152;172.732;2022-11-20T05:39:02;24.20;57.10
65826;DHT22;52586;-43.152;172.732;2022-11-20T05:41:34;24.20;57.10
65826;DHT22;52586;-43.152;172.732;2022-11-20T05:44:05;24.20;57.10
65826;DHT22;52586;-43.152;172.732;2022-11-20T05:46:36;24.20;57.10
65826;DHT22;52586;-43.152;172.732;2022-11-20T05:49:07;24.10;57.00
65826;DHT22;52586;-43.152;172.732;2022-11-20T05:51:38;24.20;57.10
65826;DHT22;52586;-43.152;172.732;2022-11-20T05:54:08;24.20;57.00
65826;DHT22;52586;-43.152;172.732;2022-11-20T05:56:41;24.10;57.00
65826;DHT22;52586;-43.152;172.732;2022-11-20T05:59:12;24.10;56.90
65826;DHT22;52586;-43.152;172.732;2022-11-20T06:01:43;24.10;56.90
65826;DHT22;52586;-43.152;172.732;2022-11-20T06:04:15;24.10;56.90
65826;DHT22;52586;-43.152;172.732;2022-11-20T06:06:46;24.10;56.90
65826;DHT22;52586;-43.152;172.732;2022-11-20T06:09:18;24.10;56.90
65826;DHT22;52586;-43.152;172.732;2022-11-20T06:11:51;24.10;56.80
65826;DHT22;52586;-43.152;172.732;2022-11-20T06:14:22;24.10;56.90
65826;DHT22;52586;-43.152;172.732;2022-11-20T06:16:52;24.10;56.90
65826;DHT22;52586;-43.152;172.732;2022-11-20T06:19:23;24.00;56.90
65826;DHT22;52586;-43.152;172.732;2022-11-20T06:21:54;24.00;56.80
65826;DHT22;52586;-43.152;172.732;2022-11-20T06:24:25;24.00;56.80
65826;DHT22;52586;-43.152;172.732;2022-11-20T06:26:57;24.00;56.80
65826;DHT22;52586;-43.152;172.732;2022-11-20T06:29:28;24.00;56.80
65826;DHT22;52586;-43.152;172.732;2022-11-20T06:31:59;24.00;56.80
65826;DHT22;52586;-43.152;172.732;2022-11-20T06:34:30;24.00;56.80
65826;DHT22;52586;-43.152;172.732;2022-11-20T06:37:01;24.00;56.80
65826;DHT22;52586;-43.152;172.732;2022-11-20T06:39:41;24.00;56.80
65826;DHT22;52586;-43.152;172.732;2022-11-20T06:42:14;24.00;56.80
65826;DHT22;52586;-43.152;172.732;2022-11-20T06:44:46;23.90;56.70
65826;DHT22;52586;-43.152;172.732;2022-11-20T06:47:17;23.90;56.70
65826;DHT22;52586;-43.152;172.732;2022-11-20T06:49:47;23.90;56.70
65826;DHT22;52586;-43.152;172.732;2022-11-20T06:52:18;23.90;56.80
65826;DHT22;52586;-43.152;172.732;2022-11-20T06:54:49;23.90;56.80
65826;DHT22;52586;-43.152;172.732;2022-11-20T06:57:22;23.80;56.80
65826;DHT22;52586;-43.152;172.732;2022-11-20T06:59:52;23.80;56.70
65826;DHT22;52586;-43.152;172.732;2022-11-20T07:02:23;23.80;56.80
65826;DHT22;52586;-43.152;172.732;2022-11-20T07:04:54;23.80;56.80
65826;DHT22;52586;-43.152;172.732;2022-11-20T07:07:26;23.80;56.70
65826;DHT22;52586;-43.152;172.732;2022-11-20T07:09:58;23.80;56.80
65826;DHT22;52586;-43.152;172.732;2022-11-20T07:12:31;23.80;56.70
65826;DHT22;52586;-43.152;172.732;2022-11-20T07:15:02;23.80;56.80
65826;DHT22;52586;-43.152;172.732;2022-11-20T07:17:33;23.80;56.80
65826;DHT22;52586;-43.152;172.732;2022-11-20T07:20:04;23.70;56.70
65826;DHT22;52586;-43.152;172.732;2022-11-20T07:22:35;23.70;56.80
65826;DHT22;52586;-43.152;172.732;2022-11-20T07:25:07;23.70;56.70
65826;DHT22;52586;-43.152;172.732;2022-11-20T07:27:40;23.70;56.80
65826;DHT22;52586;-43.152;172.732;2022-11-20T07:30:15;23.70;56.80
65826;DHT22;52586;-43.152;172.732;2022-11-20T07:32:50;23.70;56.80
65826;DHT22;52586;-43.152;172.732;2022-11-20T07:35:22;23.70;56.80
65826;DHT22;52586;-43.152;172.732;2022-11-20T07:37:53;23.60;56.80
65826;DHT22;52586;-43.152;172.732;2022-11-20T07:40:25;23.60;56.80
65826;DHT22;52586;-43.152;172.732;2022-11-20T07:42:58;23.60;56.80
65826;DHT22;52586;-43.152;172.732;2022-11-20T07:45:29;23.60;56.70
65826;DHT22;52586;-43.152;172.732;2022-11-20T07:48:00;23.60;56.70
65826;DHT22;52586;-43.152;172.732;2022-11-20T07:50:30;23.60;56.80
65826;DHT22;52586;-43.152;172.732;2022-11-20T07:53:05;23.50;56.70
65826;DHT22;52586;-43.152;172.732;2022-11-20T07:55:36;23.50;56.70
65826;DHT22;52586;-43.152;172.732;2022-11-20T07:58:09;23.50;56.70
65826;DHT22;52586;-43.152;172.732;2022-11-20T08:00:40;23.50;56.80
65826;DHT22;52586;-43.152;172.732;2022-11-20T08:03:11;23.50;56.90
65826;DHT22;52586;-43.152;172.732;2022-11-20T08:05:45;23.50;57.00
65826;DHT22;52586;-43.152;172.732;2022-11-20T08:08:16;23.50;57.00
65826;DHT22;52586;-43.152;172.732;2022-11-20T08:10:50;23.40;57.00
65826;DHT22;52586;-43.152;172.732;2022-11-20T08:13:46;23.40;56.90
65826;DHT22;52586;-43.152;172.732;2022-11-20T08:16:33;23.40;56.80
65826;DHT22;52586;-43.152;172.732;2022-11-20T08:19:05;23.40;56.80
65826;DHT22;52586;-43.152;172.732;2022-11-20T08:21:39;23.40;56.80
65826;DHT22;52586;-43.152;172.732;2022-11-20T08:24:12;23.40;56.90
65826;DHT22;52586;-43.152;172.732;2022-11-20T08:26:44;23.40;57.00
65826;DHT22;52586;-43.152;172.732;2022-11-20T08:29:17;23.30;56.90
65826;DHT22;52586;-43.152;172.732;2022-11-20T08:31:48;23.30;57.00
65826;DHT22;52586;-43.152;172.732;2022-11-20T08:34:19;23.30;57.00
65826;DHT22;52586;-43.152;172.732;2022-11-20T08:36:50;23.30;57.00
65826;DHT22;52586;-43.152;172.732;2022-11-20T08:39:20;23.30;57.00
65826;DHT22;52586;-43.152;172.732;2022-11-20T08:41:51;23.30;57.00
65826;DHT22;52586;-43.152;172.732;2022-11-20T08:44:27;23.20;56.90
65826;DHT22;52586;-43.152;172.732;2022-11-20T08:47:01;23.20;56.90
65826;DHT22;52586;-43.152;172.732;2022-11-20T08:49:32;23.20;56.90
65826;DHT22;52586;-43.152;172.732;2022-11-20T08:52:03;23.20;56.90
65826;DHT22;52586;-43.152;172.732;2022-11-20T08:54:33;23.10;56.80
65826;DHT22;52586;-43.152;172.732;2022-11-20T08:57:04;23.10;57.40
65826;DHT22;52586;-43.152;172.732;2022-11-20T08:59:37;23.10;56.80
65826;DHT22;52586;-43.152;172.732;2022-11-20T09:02:09;23.10;56.80
65826;DHT22;52586;-43.152;172.732;2022-11-20T09:04:39;23.10;56.90
65826;DHT22;52586;-43.152;172.732;2022-11-20T09:07:10;23.00;56.80
65826;DHT22;52586;-43.152;172.732;2022-11-20T09:09:41;23.00;56.90
65826;DHT22;52586;-43.152;172.732;2022-11-20T09:12:12;23.00;56.90
65826;DHT22;52586;-43.152;172.732;2022-11-20T09:14:45;23.00;56.90
65826;DHT22;52586;-43.152;172.732;2022-11-20T09:17:17;23.00;57.00
65826;DHT22;52586;-43.152;172.732;2022-11-20T09:19:48;22.90;56.90
65826;DHT22;52586;-43.152;172.732;2022-11-20T09:22:19;22.90;56.90
65826;DHT22;52586;-43.152;172.732;2022-11-20T09:24:49;22.90;56.90
65826;DHT22;52586;-43.152;172.732;2022-11-20T09:27:20;22.90;56.90
65826;DHT22;52586;-43.152;172.732;2022-11-20T09:29:53;22.90;56.90
65826;DHT22;52586;-43.152;172.732;2022-11-20T09:32:23;22.90;56.90
65826;DHT22;52586;-43.152;172.732;2022-11-20T09:34:54;22.80;56.90
65826;DHT22;52586;-43.152;172.732;2022-11-20T09:37:25;22.80;57.00
65826;DHT22;52586;-43.152;172.732;2022-11-20T09:39:56;22.80;57.00
65826;DHT22;52586;-43.152;172.732;2022-11-20T09:42:33;22.80;57.00
65826;DHT22;52586;-43.152;172.732;2022-11-20T09:45:20;22.70;57.00
65826;DHT22;52586;-43.152;172.732;2022-11-20T09:48:01;22.70;56.90
65826;DHT22;52586;-43.152;172.732;2022-11-20T09:50:38;22.70;57.00
65826;DHT22;52586;-43.152;172.732;2022-11-20T09:53:20;22.70;57.10
65826;DHT22;52586;-43.152;172.732;2022-11-20T09:55:54;22.70;57.10
65826;DHT22;52586;-43.152;172.732;2022-11-20T09:58:29;22.60;57.10
65826;DHT22;52586;-43.152;172.732;2022-11-20T10:01:10;22.60;57.10
65826;DHT22;52586;-43.152;172.732;2022-11-20T10:03:50;22.60;57.10
65826;DHT22;52586;-43.152;172.732;2022-11-20T10:06:28;22.60;57.10
65826;DHT22;52586;-43.152;172.732;2022-11-20T10:09:18;22.50;57.00
65826;DHT22;52586;-43.152;172.732;2022-11-20T10:12:02;22.50;57.00
65826;DHT22;52586;-43.152;172.732;2022-11-20T10:14:43;22.50;56.90
65826;DHT22;52586;-43.152;172.732;2022-11-20T10:17:29;22.50;56.90
65826;DHT22;52586;-43.152;172.732;2022-11-20T10:20:17;22.50;57.00
65826;DHT22;52586;-43.152;172.732;2022-11-20T10:23:00;22.40;57.60
65826;DHT22;52586;-43.152;172.732;2022-11-20T10:25:38;22.40;57.00
65826;DHT22;52586;-43.152;172.732;2022-11-20T10:28:28;22.40;57.10
65826;DHT22;52586;-43.152;172.732;2022-11-20T10:31:03;22.30;57.10
65826;DHT22;52586;-43.152;172.732;2022-11-20T10:33:39;22.30;57.10
65826;DHT22;52586;-43.152;172.732;2022-11-20T10:36:16;22.30;57.10
65826;DHT22;52586;-43.152;172.732;2022-11-20T10:38:50;22.30;57.10
65826;DHT22;52586;-43.152;172.732;2022-11-20T10:41:24;22.20;57.10
65826;DHT22;52586;-43.152;172.732;2022-11-20T10:44:03;22.20;57.10
65826;DHT22;52586;-43.152;172.732;2022-11-20T10:46:43;22.20;57.10
65826;DHT22;52586;-43.152;172.732;2022-11-20T10:49:18;22.20;57.00
65826;DHT22;52586;-43.152;172.732;2022-11-20T10:51:58;22.20;57.00
65826;DHT22;52586;-43.152;172.732;2022-11-20T10:54:36;22.20;57.00
65826;DHT22;52586;-43.152;172.732;2022-11-20T10:57:19;22.10;57.00
65826;DHT22;52586;-43.152;172.732;2022-11-20T11:00:04;22.10;57.10
65826;DHT22;52586;-43.152;172.732;2022-11-20T11:02:39;22.10;57.10
65826;DHT22;52586;-43.152;172.732;2022-11-20T11:05:31;22.10;57.10
65826;DHT22;52586;-43.152;172.732;2022-11-20T11:08:04;22.00;57.20
65826;DHT22;52586;-43.152;172.732;2022-11-20T11:10:42;22.00;57.20
65826;DHT22;52586;-43.152;172.732;2022-11-20T11:13:21;22.00;57.20
65826;DHT22;52586;-43.152;172.732;2022-11-20T11:15:53;22.00;57.20
65826;DHT22;52586;-43.152;172.732;2022-11-20T11:18:27;22.00;57.20
65826;DHT22;52586;-43.152;172.732;2022-11-20T11:21:03;21.90;57.20
65826;DHT22;52586;-43.152;172.732;2022-11-20T11:23:36;21.90;57.10
65826;DHT22;52586;-43.152;172.732;2022-11-20T11:26:18;21.90;57.40
65826;DHT22;52586;-43.152;172.732;2022-11-20T11:28:55;21.90;57.10
65826;DHT22;52586;-43.152;172.732;2022-11-20T11:31:27;21.90;57.10
65826;DHT22;52586;-43.152;172.732;2022-11-20T11:34:07;21.90;57.10
65826;DHT22;52586;-43.152;172.732;2022-11-20T11:36:40;21.80;57.10
65826;DHT22;52586;-43.152;172.732;2022-11-20T11:39:15;21.80;57.10
65826;DHT22;52586;-43.152;172.732;2022-11-20T11:41:48;21.80;57.20
65826;DHT22;52586;-43.152;172.732;2022-11-20T11:44:20;21.80;57.20
65826;DHT22;52586;-43.152;172.732;2022-11-20T11:47:11;21.80;57.30
65826;DHT22;52586;-43.152;172.732;2022-11-20T11:49:48;21.70;57.20
65826;DHT22;52586;-43.152;172.732;2022-11-20T11:52:22;21.70;57.20
65826;DHT22;52586;-43.152;172.732;2022-11-20T11:54:55;21.70;57.20
65826;DHT22;52586;-43.152;172.732;2022-11-20T11:57:41;21.60;57.10
65826;DHT22;52586;-43.152;172.732;2022-11-20T12:00:16;21.70;57.20
65826;DHT22;52586;-43.152;172.732;2022-11-20T12:02:57;21.60;57.10
65826;DHT22;52586;-43.152;172.732;2022-11-20T12:05:38;21.60;57.10
65826;DHT22;52586;-43.152;172.732;2022-11-20T12:08:17;21.60;57.10
65826;DHT22;52586;-43.152;172.732;2022-11-20T12:10:53;21.60;57.10
65826;DHT22;52586;-43.152;172.732;2022-11-20T12:16:21;21.50;57.10
65826;DHT22;52586;-43.152;172.732;2022-11-20T12:18:53;21.50;57.20
65826;DHT22;52586;-43.152;172.732;2022-11-20T12:21:31;21.50;57.20
65826;DHT22;52586;-43.152;172.732;2022-11-20T12:24:19;21.40;57.20
65826;DHT22;52586;-43.152;172.732;2022-11-20T12:27:08;21.40;57.20
65826;DHT22;52586;-43.152;172.732;2022-11-20T12:29:48;21.40;57.20
65826;DHT22;52586;-43.152;172.732;2022-11-20T12:32:54;21.40;57.20
65826;DHT22;52586;-43.152;172.732;2022-11-20T12:35:47;21.40;57.20
65826;DHT22;52586;-43.152;172.732;2022-11-20T12:38:46;21.40;57.20
65826;DHT22;52586;-43.152;172.732;2022-11-20T12:41:36;21.30;57.10
65826;DHT22;52586;-43.152;172.732;2022-11-20T12:44:50;21.30;57.10
65826;DHT22;52586;-43.152;172.732;2022-11-20T12:47:59;21.30;57.10
65826;DHT22;52586;-43.152;172.732;2022-11-20T12:50:38;21.30;57.10
65826;DHT22;52586;-43.152;172.732;2022-11-20T12:53:23;21.30;57.20
65826;DHT22;52586;-43.152;172.732;2022-11-20T12:56:00;21.20;57.20
65826;DHT22;52586;-43.152;172.732;2022-11-20T12:58:39;21.20;57.90
65826;DHT22;52586;-43.152;172.732;2022-11-20T13:01:22;21.10;57.30
65826;DHT22;52586;-43.152;172.732;2022-11-20T13:04:22;21.10;57.20
65826;DHT22;52586;-43.152;172.732;2022-11-20T13:07:04;21.10;57.20
65826;DHT22;52586;-43.152;172.732;2022-11-20T13:09:39;21.10;57.20
65826;DHT22;52586;-43.152;172.732;2022-11-20T13:12:15;21.10;57.20
65826;DHT22;52586;-43.152;172.732;2022-11-20T13:14:53;21.10;57.20
65826;DHT22;52586;-43.152;172.732;2022-11-20T13:17:33;21.10;57.20
65826;DHT22;52586;-43.152;172.732;2022-11-20T13:20:11;21.10;57.20
65826;DHT22;52586;-43.152;172.732;2022-11-20T13:22:47;21.10;57.10
65826;DHT22;52586;-43.152;172.732;2022-11-20T13:25:26;21.00;57.20
65826;DHT22;52586;-43.152;172.732;2022-11-20T13:27:59;21.00;57.20
65826;DHT22;52586;-43.152;172.732;2022-11-20T13:30:33;21.00;57.20
65826;DHT22;52586;-43.152;172.732;2022-11-20T13:33:08;20.90;57.20
65826;DHT22;52586;-43.152;172.732;2022-11-20T13:35:42;20.90;57.20
65826;DHT22;52586;-43.152;172.732;2022-11-20T13:38:14;20.90;57.20
65826;DHT22;52586;-43.152;172.732;2022-11-20T13:40:53;20.90;57.30
65826;DHT22;52586;-43.152;172.732;2022-11-20T13:43:28;20.90;57.20
65826;DHT22;52586;-43.152;172.732;2022-11-20T13:46:07;20.90;57.20
65826;DHT22;52586;-43.152;172.732;2022-11-20T13:48:41;20.90;57.20
65826;DHT22;52586;-43.152;172.732;2022-11-20T13:51:25;20.90;57.20
65826;DHT22;52586;-43.152;172.732;2022-11-20T13:57:03;20.90;57.20
65826;DHT22;52586;-43.152;172.732;2022-11-20T13:59:52;20.80;57.10
65826;DHT22;52586;-43.152;172.732;2022-11-20T14:02:29;20.80;57.10
65826;DHT22;52586;-43.152;172.732;2022-11-20T14:05:01;20.80;57.10
65826;DHT22;52586;-43.152;172.732;2022-11-20T14:07:37;20.80;57.20
65826;DHT22;52586;-43.152;172.732;2022-11-20T14:10:21;20.80;57.20
65826;DHT22;52586;-43.152;172.732;2022-11-20T14:12:53;20.80;57.30
65826;DHT22;52586;-43.152;172.732;2022-11-20T14:15:28;20.80;57.30
65826;DHT22;52586;-43.152;172.732;2022-11-20T14:18:12;20.70;57.20
65826;DHT22;52586;-43.152;172.732;2022-11-20T14:20:44;20.70;57.30
65826;DHT22;52586;-43.152;172.732;2022-11-20T14:23:25;20.70;57.20
65826;DHT22;52586;-43.152;172.732;2022-11-20T14:25:56;20.70;57.30
65826;DHT22;52586;-43.152;172.732;2022-11-20T14:28:28;20.70;57.20
65826;DHT22;52586;-43.152;172.732;2022-11-20T14:30:59;20.70;57.30
65826;DHT22;52586;-43.152;172.732;2022-11-20T14:33:39;20.70;57.30
65826;DHT22;52586;-43.152;172.732;2022-11-20T14:36:18;20.60;57.20
65826;DHT22;52586;-43.152;172.732;2022-11-20T14:38:51;20.70;57.30
65826;DHT22;52586;-43.152;172.732;2022-11-20T14:41:23;20.70;57.20
65826;DHT22;52586;-43.152;172.732;2022-11-20T14:43:57;20.60;57.20
65826;DHT22;52586;-43.152;172.732;2022-11-20T14:46:31;20.60;57.30
65826;DHT22;52586;-43.152;172.732;2022-11-20T14:49:04;20.60;57.30
65826;DHT22;52586;-43.152;172.732;2022-11-20T14:51:36;20.60;57.30
65826;DHT22;52586;-43.152;172.732;2022-11-20T14:54:12;20.60;57.30
65826;DHT22;52586;-43.152;172.732;2022-11-20T14:56:55;20.60;57.30
65826;DHT22;52586;-43.152;172.732;2022-11-20T14:59:26;20.50;57.30
65826;DHT22;52586;-43.152;172.732;2022-11-20T15:01:59;20.50;57.20
65826;DHT22;52586;-43.152;172.732;2022-11-20T15:04:32;20.50;57.20
65826;DHT22;52586;-43.152;172.732;2022-11-20T15:07:03;20.50;57.20
65826;DHT22;52586;-43.152;172.732;2022-11-20T15:09:34;20.50;57.20
65826;DHT22;52586;-43.152;172.732;2022-11-20T15:12:05;20.50;57.20
65826;DHT22;52586;-43.152;172.732;2022-11-20T15:14:37;20.40;57.20
65826;DHT22;52586;-43.152;172.732;2022-11-20T15:17:11;20.50;57.30
65826;DHT22;52586;-43.152;172.732;2022-11-20T15:19:43;20.50;57.30
65826;DHT22;52586;-43.152;172.732;2022-11-20T15:22:14;20.50;57.40
65826;DHT22;52586;-43.152;172.732;2022-11-20T15:24:46;20.50;57.40
65826;DHT22;52586;-43.152;172.732;2022-11-20T15:27:16;20.50;57.40
65826;DHT22;52586;-43.152;172.732;2022-11-20T15:29:47;20.50;57.30
65826;DHT22;52586;-43.152;172.732;2022-11-20T15:32:18;20.40;57.30
65826;DHT22;52586;-43.152;172.732;2022-11-20T15:34:51;20.40;57.30
65826;DHT22;52586;-43.152;172.732;2022-11-20T15:37:21;20.40;57.20
65826;DHT22;52586;-43.152;172.732;2022-11-20T15:39:52;20.40;57.30